createdAt,value
2017-11-08T00:00:56.591Z,0.00
2017-11-08T00:01:56.620Z,0.00
2017-11-08T00:02:56.672Z,0.00
2017-11-08T00:03:56.680Z,0.00
2017-11-08T00:04:56.710Z,0.00
2017-11-08T00:05:56.739Z,0.00
2017-11-08T00:06:56.769Z,0.00
2017-11-08T00:07:56.799Z,0.00
2017-11-08T00:08:56.829Z,0.00
2017-11-08T00:09:56.858Z,0.00
2017-11-08T00:10:56.887Z,0.00
2017-11-08T00:11:56.919Z,0.00
2017-11-08T00:12:56.949Z,0.00
2017-11-08T00:13:56.980Z,0.00
2017-11-08T00:14:57.008Z,0.00
2017-11-08T00:15:57.040Z,0.00
2017-11-08T00:16:57.068Z,0.00
2017-11-08T00:17:57.097Z,0.00
2017-11-08T00:18:57.132Z,0.00
2017-11-08T00:19:57.160Z,0.00
2017-11-08T00:20:57.193Z,0.00
2017-11-08T00:21:57.217Z,0.00
2017-11-08T00:22:57.246Z,0.00
2017-11-08T00:23:57.277Z,0.00
2017-11-08T00:24:57.307Z,0.00
2017-11-08T00:25:57.337Z,0.00
2017-11-08T00:26:57.367Z,0.00
2017-11-08T00:27:57.396Z,0.00
2017-11-08T00:28:57.427Z,0.00
2017-11-08T00:29:57.455Z,0.00
2017-11-08T00:30:57.486Z,0.00
2017-11-08T00:31:57.516Z,0.00
2017-11-08T00:32:57.546Z,0.00
2017-11-08T00:33:57.575Z,0.00
2017-11-08T00:34:57.605Z,0.00
2017-11-08T00:35:57.635Z,0.00
2017-11-08T00:36:57.666Z,0.00
2017-11-08T00:37:57.695Z,0.00
2017-11-08T00:38:57.727Z,0.00
2017-11-08T00:39:57.755Z,0.00
2017-11-08T00:40:57.785Z,0.00
2017-11-08T00:41:57.815Z,0.00
2017-11-08T00:42:57.843Z,0.00
2017-11-08T00:43:57.873Z,0.00
2017-11-08T00:44:57.905Z,0.00
2017-11-08T00:45:57.934Z,0.00
2017-11-08T00:46:57.964Z,0.00
2017-11-08T00:47:57.997Z,0.00
2017-11-08T00:48:58.024Z,0.00
2017-11-08T00:49:58.054Z,0.00
2017-11-08T00:50:58.085Z,0.00
2017-11-08T00:51:58.114Z,0.00
2017-11-08T00:52:58.146Z,0.00
2017-11-08T00:53:58.174Z,0.00
2017-11-08T00:54:58.203Z,0.00
2017-11-08T00:55:58.232Z,0.00
2017-11-08T00:56:58.265Z,0.00
2017-11-08T00:57:58.293Z,0.00
2017-11-08T00:58:58.324Z,0.00
2017-11-08T00:59:58.403Z,0.00
2017-11-08T01:00:58.384Z,0.00
2017-11-08T01:01:58.414Z,0.00
2017-11-08T01:02:58.443Z,0.00
2017-11-08T01:03:58.474Z,0.00
2017-11-08T01:04:58.504Z,0.00
2017-11-08T01:05:58.534Z,0.00
2017-11-08T01:06:58.563Z,0.00
2017-11-08T01:07:58.594Z,0.00
2017-11-08T01:08:58.625Z,0.00
2017-11-08T01:09:58.660Z,0.00
2017-11-08T01:10:58.682Z,0.00
2017-11-08T01:11:58.713Z,0.00
2017-11-08T01:12:58.743Z,0.00
2017-11-08T01:13:58.773Z,0.00
2017-11-08T01:14:58.804Z,0.00
2017-11-08T01:15:58.834Z,0.00
2017-11-08T01:16:58.863Z,0.00
2017-11-08T01:17:58.893Z,0.00
2017-11-08T01:18:58.924Z,0.00
2017-11-08T01:19:58.954Z,0.00
2017-11-08T01:20:58.984Z,0.00
2017-11-08T01:21:59.013Z,0.00
2017-11-08T01:22:59.044Z,0.00
2017-11-08T01:23:59.074Z,0.00
2017-11-08T01:24:59.105Z,0.00
2017-11-08T01:25:59.134Z,0.00
2017-11-08T01:26:59.164Z,0.00
2017-11-08T01:27:59.194Z,0.00
2017-11-08T01:28:59.224Z,0.00
2017-11-08T01:29:59.252Z,0.00
2017-11-08T01:30:59.284Z,0.00
2017-11-08T01:31:59.314Z,0.00
2017-11-08T01:32:59.347Z,0.00
2017-11-08T01:33:59.375Z,0.00
2017-11-08T01:34:59.406Z,0.00
2017-11-08T01:35:59.434Z,0.00
2017-11-08T01:36:59.464Z,0.00
2017-11-08T01:37:59.496Z,0.00
2017-11-08T01:38:59.524Z,0.00
2017-11-08T01:39:59.554Z,0.00
2017-11-08T01:40:59.597Z,0.00
2017-11-08T01:41:59.613Z,0.00
2017-11-08T01:42:59.644Z,0.00
2017-11-08T01:43:59.674Z,0.00
2017-11-08T01:44:59.705Z,0.00
2017-11-08T01:45:59.734Z,0.00
2017-11-08T01:46:59.764Z,0.00
2017-11-08T01:47:59.800Z,0.00
2017-11-08T01:48:59.825Z,0.00
2017-11-08T01:49:59.854Z,0.00
2017-11-08T01:50:59.884Z,0.00
2017-11-08T01:51:59.913Z,0.00
2017-11-08T01:52:59.943Z,0.00
2017-11-08T01:53:59.974Z,0.00
2017-11-08T01:55:00.005Z,0.00
2017-11-08T01:56:00.035Z,0.00
2017-11-08T01:57:00.069Z,0.00
2017-11-08T01:58:00.095Z,0.00
2017-11-08T01:59:00.124Z,0.00
2017-11-08T02:00:00.162Z,0.00
2017-11-08T02:01:00.185Z,0.00
2017-11-08T02:02:00.215Z,0.00
2017-11-08T02:03:00.244Z,0.00
2017-11-08T02:04:00.274Z,0.00
2017-11-08T02:05:00.313Z,0.00
2017-11-08T02:06:00.334Z,0.00
2017-11-08T02:07:00.364Z,0.00
2017-11-08T02:08:00.394Z,0.00
2017-11-08T02:09:00.425Z,0.00
2017-11-08T02:10:00.452Z,0.00
2017-11-08T02:11:00.490Z,0.00
2017-11-08T02:12:00.564Z,0.00
2017-11-08T02:13:00.545Z,0.00
2017-11-08T02:14:00.573Z,0.00
2017-11-08T02:15:00.603Z,0.00
2017-11-08T02:16:00.634Z,0.00
2017-11-08T02:17:00.665Z,0.00
2017-11-08T02:18:00.695Z,0.00
2017-11-08T02:19:00.723Z,0.00
2017-11-08T02:20:00.759Z,0.00
2017-11-08T02:21:00.783Z,0.00
2017-11-08T02:22:00.813Z,0.00
2017-11-08T02:23:00.858Z,0.00
2017-11-08T02:24:00.873Z,0.00
2017-11-08T02:25:00.904Z,0.00
2017-11-08T02:26:00.933Z,0.00
2017-11-08T02:27:00.962Z,0.00
2017-11-08T02:28:00.992Z,0.00
2017-11-08T02:29:01.026Z,0.00
2017-11-08T02:30:01.053Z,0.00
2017-11-08T02:31:01.083Z,0.00
2017-11-08T02:32:01.112Z,0.00
2017-11-08T02:33:01.143Z,0.00
2017-11-08T02:34:01.172Z,0.00
2017-11-08T02:35:01.201Z,0.00
2017-11-08T02:36:01.233Z,0.00
2017-11-08T02:37:01.263Z,0.00
2017-11-08T02:38:01.292Z,0.00
2017-11-08T02:39:01.322Z,0.00
2017-11-08T02:40:01.353Z,0.00
2017-11-08T02:41:01.381Z,0.00
2017-11-08T02:42:01.412Z,0.00
2017-11-08T02:43:01.493Z,0.00
2017-11-08T02:44:01.472Z,0.00
2017-11-08T02:45:01.502Z,0.00
2017-11-08T02:46:01.532Z,0.00
2017-11-08T02:47:01.564Z,0.00
2017-11-08T02:48:01.593Z,0.00
2017-11-08T02:49:01.624Z,0.00
2017-11-08T02:50:01.655Z,0.00
2017-11-08T02:51:01.689Z,0.00
2017-11-08T02:52:01.710Z,0.00
2017-11-08T02:53:01.742Z,0.00
2017-11-08T02:54:01.772Z,0.00
2017-11-08T02:55:01.801Z,0.00
2017-11-08T02:56:01.831Z,0.00
2017-11-08T02:57:01.860Z,0.00
2017-11-08T02:58:01.891Z,0.00
2017-11-08T02:59:01.923Z,0.00
2017-11-08T03:00:01.952Z,0.00
2017-11-08T03:01:01.983Z,0.00
2017-11-08T03:02:02.011Z,0.00
2017-11-08T03:03:02.040Z,0.00
2017-11-08T03:04:02.070Z,0.00
2017-11-08T03:05:02.103Z,0.00
2017-11-08T03:06:02.131Z,0.00
2017-11-08T03:07:02.161Z,0.00
2017-11-08T03:08:02.190Z,0.00
2017-11-08T03:09:02.220Z,0.00
2017-11-08T03:10:02.253Z,0.00
2017-11-08T03:11:02.279Z,0.00
2017-11-08T03:12:02.311Z,0.00
2017-11-08T03:13:02.340Z,0.00
2017-11-08T03:14:02.419Z,0.00
2017-11-08T03:15:02.404Z,0.00
2017-11-08T03:16:02.430Z,0.00
2017-11-08T03:17:02.460Z,0.00
2017-11-08T03:18:02.490Z,0.00
2017-11-08T03:19:02.520Z,0.00
2017-11-08T03:20:02.549Z,0.00
2017-11-08T03:21:02.580Z,0.00
2017-11-08T03:22:02.610Z,0.00
2017-11-08T03:23:02.639Z,0.00
2017-11-08T03:24:02.720Z,0.00
2017-11-08T03:25:02.700Z,0.00
2017-11-08T03:26:02.729Z,0.00
2017-11-08T03:27:02.760Z,0.00
2017-11-08T03:28:02.789Z,0.00
2017-11-08T03:29:02.821Z,0.00
2017-11-08T03:30:02.853Z,0.00
2017-11-08T03:31:02.880Z,0.00
2017-11-08T03:32:02.909Z,0.00
2017-11-08T03:33:02.939Z,0.00
2017-11-08T03:34:03.019Z,0.00
2017-11-08T03:35:02.999Z,0.00
2017-11-08T03:36:03.034Z,0.00
2017-11-08T03:37:03.058Z,0.00
2017-11-08T03:38:03.089Z,0.00
2017-11-08T03:39:03.120Z,0.00
2017-11-08T03:40:03.150Z,0.00
2017-11-08T03:41:03.179Z,0.00
2017-11-08T03:42:03.208Z,0.00
2017-11-08T03:43:03.239Z,0.00
2017-11-08T03:44:03.270Z,0.00
2017-11-08T03:45:03.299Z,0.00
2017-11-08T03:46:03.328Z,0.00
2017-11-08T03:47:03.359Z,0.00
2017-11-08T03:48:03.388Z,0.00
2017-11-08T03:49:03.420Z,0.00
2017-11-08T03:50:03.449Z,0.00
2017-11-08T03:51:03.478Z,0.00
2017-11-08T03:52:03.509Z,0.00
2017-11-08T03:53:03.539Z,0.00
2017-11-08T03:54:03.568Z,0.00
2017-11-08T03:55:03.597Z,0.00
2017-11-08T03:56:03.626Z,0.00
2017-11-08T03:57:03.657Z,0.00
2017-11-08T03:58:03.692Z,0.00
2017-11-08T03:59:03.717Z,0.00
2017-11-08T04:00:03.759Z,0.00
2017-11-08T04:01:03.778Z,0.00
2017-11-08T04:02:03.805Z,0.00
2017-11-08T04:03:03.837Z,0.00
2017-11-08T04:04:03.866Z,0.00
2017-11-08T04:05:03.897Z,0.00
2017-11-08T04:06:03.925Z,0.00
2017-11-08T04:07:03.954Z,0.00
2017-11-08T04:08:03.986Z,0.00
2017-11-08T04:09:04.015Z,0.00
2017-11-08T04:10:04.046Z,0.00
2017-11-08T04:11:04.076Z,0.00
2017-11-08T04:12:04.105Z,0.00
2017-11-08T04:13:04.135Z,0.00
2017-11-08T04:14:04.165Z,0.00
2017-11-08T04:15:04.244Z,0.00
2017-11-08T04:16:04.224Z,0.00
2017-11-08T04:17:04.254Z,0.00
2017-11-08T04:18:04.283Z,0.00
2017-11-08T04:19:04.314Z,0.00
2017-11-08T04:20:04.343Z,0.00
2017-11-08T04:21:04.372Z,0.00
2017-11-08T04:22:04.403Z,0.00
2017-11-08T04:23:04.434Z,0.00
2017-11-08T04:24:04.462Z,0.00
2017-11-08T04:25:04.544Z,0.00
2017-11-08T04:26:04.522Z,0.00
2017-11-08T04:27:04.551Z,0.00
2017-11-08T04:28:04.582Z,0.00
2017-11-08T04:29:04.611Z,0.00
2017-11-08T04:30:04.641Z,0.00
2017-11-08T04:31:04.676Z,0.00
2017-11-08T04:32:04.700Z,0.00
2017-11-08T04:33:04.729Z,0.00
2017-11-08T04:34:04.760Z,0.00
2017-11-08T04:35:04.790Z,0.00
2017-11-08T04:36:04.820Z,0.00
2017-11-08T04:37:04.849Z,0.00
2017-11-08T04:38:04.878Z,0.00
2017-11-08T04:39:04.908Z,0.00
2017-11-08T04:40:04.939Z,0.00
2017-11-08T04:41:04.969Z,0.00
2017-11-08T04:42:04.997Z,0.00
2017-11-08T04:43:05.027Z,0.00
2017-11-08T04:44:05.064Z,0.00
2017-11-08T04:45:05.088Z,0.00
2017-11-08T04:46:05.165Z,0.00
2017-11-08T04:47:05.146Z,0.00
2017-11-08T04:48:05.177Z,0.00
2017-11-08T04:49:05.208Z,0.00
2017-11-08T04:50:05.235Z,0.00
2017-11-08T04:51:05.265Z,0.00
2017-11-08T04:52:05.295Z,0.00
2017-11-08T04:53:05.324Z,0.00
2017-11-08T04:54:05.353Z,0.00
2017-11-08T04:55:05.384Z,0.00
2017-11-08T04:56:05.414Z,0.00
2017-11-08T04:57:05.443Z,0.00
2017-11-08T04:58:05.472Z,0.00
2017-11-08T04:59:05.502Z,0.00
2017-11-08T05:00:05.532Z,0.00
2017-11-08T05:01:05.562Z,0.00
2017-11-08T05:02:05.600Z,0.00
2017-11-08T05:03:05.620Z,0.00
2017-11-08T05:04:05.650Z,0.00
2017-11-08T05:05:05.679Z,0.00
2017-11-08T05:06:05.710Z,0.00
2017-11-08T05:07:05.739Z,0.00
2017-11-08T05:08:05.771Z,0.00
2017-11-08T05:09:05.800Z,0.00
2017-11-08T05:10:05.828Z,0.00
2017-11-08T05:11:05.864Z,0.00
2017-11-08T05:12:05.887Z,0.00
2017-11-08T05:13:05.917Z,0.00
2017-11-08T05:14:05.946Z,0.00
2017-11-08T05:15:05.977Z,0.00
2017-11-08T05:16:06.006Z,0.00
2017-11-08T05:17:06.036Z,0.00
2017-11-08T05:18:06.065Z,0.00
2017-11-08T05:19:06.095Z,0.00
2017-11-08T05:20:06.126Z,0.00
2017-11-08T05:21:06.182Z,0.00
2017-11-08T05:22:06.184Z,0.00
2017-11-08T05:23:06.214Z,0.00
2017-11-08T05:24:06.244Z,0.00
2017-11-08T05:25:06.274Z,0.00
2017-11-08T05:26:06.303Z,0.00
2017-11-08T05:27:06.333Z,0.00
2017-11-08T05:28:06.364Z,0.00
2017-11-08T05:29:06.393Z,0.00
2017-11-08T05:30:06.421Z,0.00
2017-11-08T05:31:06.452Z,0.00
2017-11-08T05:32:06.483Z,0.00
2017-11-08T05:33:06.513Z,0.00
2017-11-08T05:34:06.542Z,0.00
2017-11-08T05:35:06.576Z,0.00
2017-11-08T05:36:06.603Z,0.00
2017-11-08T05:37:06.631Z,0.00
2017-11-08T05:38:06.659Z,0.00
2017-11-08T05:39:06.690Z,0.00
2017-11-08T05:40:06.718Z,0.00
2017-11-08T05:41:06.749Z,0.00
2017-11-08T05:42:06.778Z,0.00
2017-11-08T05:43:06.858Z,0.00
2017-11-08T05:44:06.837Z,0.00
2017-11-08T05:45:06.868Z,0.00
2017-11-08T05:46:06.896Z,0.00
2017-11-08T05:47:06.928Z,0.00
2017-11-08T05:48:06.956Z,0.00
2017-11-08T05:49:06.986Z,0.00
2017-11-08T05:50:07.015Z,0.00
2017-11-08T05:51:07.045Z,0.00
2017-11-08T05:52:07.079Z,0.00
2017-11-08T05:53:07.105Z,0.00
2017-11-08T05:54:07.134Z,0.00
2017-11-08T05:55:07.165Z,0.00
2017-11-08T05:56:07.194Z,0.00
2017-11-08T05:57:07.224Z,0.00
2017-11-08T05:58:07.257Z,0.00
2017-11-08T05:59:07.284Z,0.00
2017-11-08T06:00:07.312Z,0.00
2017-11-08T06:01:07.343Z,0.00
2017-11-08T06:02:07.371Z,0.00
2017-11-08T06:03:07.401Z,0.00
2017-11-08T06:04:07.432Z,0.00
2017-11-08T06:05:07.460Z,0.00
2017-11-08T06:06:07.491Z,0.00
2017-11-08T06:07:07.521Z,0.00
2017-11-08T06:08:07.551Z,0.00
2017-11-08T06:09:07.584Z,0.00
2017-11-08T06:10:07.609Z,0.00
2017-11-08T06:11:07.639Z,0.00
2017-11-08T06:12:07.669Z,0.00
2017-11-08T06:13:07.700Z,0.00
2017-11-08T06:14:07.728Z,0.00
2017-11-08T06:15:07.759Z,0.00
2017-11-08T06:16:07.789Z,0.00
2017-11-08T06:17:07.819Z,0.00
2017-11-08T06:18:07.847Z,0.00
2017-11-08T06:19:07.876Z,0.00
2017-11-08T06:20:07.907Z,0.00
2017-11-08T06:21:07.936Z,0.00
2017-11-08T06:22:07.966Z,0.00
2017-11-08T06:23:07.997Z,0.00
2017-11-08T06:24:08.031Z,0.00
2017-11-08T06:25:08.057Z,0.00
2017-11-08T06:26:08.086Z,0.00
2017-11-08T06:27:08.115Z,0.00
2017-11-08T06:28:08.144Z,0.00
2017-11-08T06:29:08.175Z,0.00
2017-11-08T06:30:08.204Z,0.00
2017-11-08T06:31:08.234Z,0.00
2017-11-08T06:32:08.264Z,0.00
2017-11-08T06:33:08.293Z,0.00
2017-11-08T06:34:08.323Z,0.00
2017-11-08T06:35:08.353Z,0.00
2017-11-08T06:36:08.383Z,0.00
2017-11-08T06:37:08.412Z,5.63
2017-11-08T06:38:08.446Z,5.63
2017-11-08T06:39:08.528Z,5.63
2017-11-08T06:40:08.502Z,5.63
2017-11-08T06:41:08.532Z,5.63
2017-11-08T06:42:08.561Z,5.63
2017-11-08T06:43:08.589Z,5.63
2017-11-08T06:44:08.623Z,5.63
2017-11-08T06:45:08.651Z,5.63
2017-11-08T06:46:08.678Z,5.63
2017-11-08T06:47:08.709Z,11.25
2017-11-08T06:48:08.739Z,11.25
2017-11-08T06:49:08.769Z,11.25
2017-11-08T06:50:08.798Z,11.25
2017-11-08T06:51:08.827Z,11.25
2017-11-08T06:52:08.856Z,16.88
2017-11-08T06:53:08.886Z,16.88
2017-11-08T06:54:08.917Z,16.88
2017-11-08T06:55:08.947Z,16.88
2017-11-08T06:56:08.975Z,16.88
2017-11-08T06:57:09.006Z,22.50
2017-11-08T06:58:09.035Z,22.50
2017-11-08T06:59:09.066Z,22.50
2017-11-08T07:00:09.094Z,22.50
2017-11-08T07:01:09.123Z,28.13
2017-11-08T07:02:09.154Z,28.13
2017-11-08T07:03:09.184Z,28.13
2017-11-08T07:04:09.214Z,28.13
2017-11-08T07:05:09.294Z,28.13
2017-11-08T07:06:09.277Z,33.75
2017-11-08T07:07:09.301Z,33.75
2017-11-08T07:08:09.332Z,33.75
2017-11-08T07:09:09.361Z,33.75
2017-11-08T07:10:09.389Z,39.38
2017-11-08T07:11:09.420Z,39.38
2017-11-08T07:12:09.457Z,39.38
2017-11-08T07:13:09.480Z,39.38
2017-11-08T07:14:09.510Z,39.38
2017-11-08T07:15:09.538Z,45.00
2017-11-08T07:16:09.568Z,45.00
2017-11-08T07:17:09.599Z,45.00
2017-11-08T07:18:09.628Z,45.00
2017-11-08T07:19:09.657Z,45.00
2017-11-08T07:20:09.689Z,45.00
2017-11-08T07:21:09.717Z,45.00
2017-11-08T07:22:09.746Z,45.00
2017-11-08T07:23:09.776Z,45.00
2017-11-08T07:24:09.811Z,50.63
2017-11-08T07:25:09.837Z,45.00
2017-11-08T07:26:09.866Z,45.00
2017-11-08T07:27:09.896Z,45.00
2017-11-08T07:28:09.925Z,45.00
2017-11-08T07:29:09.956Z,39.38
2017-11-08T07:30:09.985Z,39.38
2017-11-08T07:31:10.016Z,39.38
2017-11-08T07:32:10.046Z,39.38
2017-11-08T07:33:10.076Z,39.38
2017-11-08T07:34:10.105Z,39.38
2017-11-08T07:35:10.134Z,39.38
2017-11-08T07:36:10.165Z,39.38
2017-11-08T07:37:10.196Z,39.38
2017-11-08T07:38:10.225Z,39.38
2017-11-08T07:39:10.254Z,39.38
2017-11-08T07:40:10.285Z,45.00
2017-11-08T07:41:10.316Z,45.00
2017-11-08T07:42:10.346Z,45.00
2017-11-08T07:43:10.375Z,45.00
2017-11-08T07:44:10.413Z,45.00
2017-11-08T07:45:10.435Z,45.00
2017-11-08T07:46:10.465Z,45.00
2017-11-08T07:47:10.496Z,50.63
2017-11-08T07:48:10.525Z,50.63
2017-11-08T07:49:10.554Z,50.63
2017-11-08T07:50:10.584Z,56.25
2017-11-08T07:51:10.616Z,56.25
2017-11-08T07:52:10.696Z,61.88
2017-11-08T07:53:10.678Z,61.88
2017-11-08T07:54:10.706Z,61.88
2017-11-08T07:55:10.736Z,61.88
2017-11-08T07:56:10.765Z,61.88
2017-11-08T07:57:10.797Z,61.88
2017-11-08T07:58:10.827Z,67.50
2017-11-08T07:59:10.856Z,67.50
2017-11-08T08:00:10.887Z,67.50
2017-11-08T08:01:10.917Z,67.50
2017-11-08T08:02:10.947Z,67.50
2017-11-08T08:03:10.980Z,67.50
2017-11-08T08:04:11.008Z,67.50
2017-11-08T08:05:11.039Z,61.88
2017-11-08T08:06:11.068Z,61.88
2017-11-08T08:07:11.109Z,61.88
2017-11-08T08:08:11.128Z,61.88
2017-11-08T08:09:11.160Z,61.88
2017-11-08T08:10:11.189Z,61.88
2017-11-08T08:11:11.219Z,61.88
2017-11-08T08:12:11.249Z,61.88
2017-11-08T08:13:11.281Z,61.88
2017-11-08T08:14:11.309Z,61.88
2017-11-08T08:15:11.341Z,61.88
2017-11-08T08:16:11.370Z,61.88
2017-11-08T08:17:11.401Z,61.88
2017-11-08T08:18:11.432Z,61.88
2017-11-08T08:19:11.462Z,67.50
2017-11-08T08:20:11.494Z,67.50
2017-11-08T08:21:11.524Z,67.50
2017-11-08T08:22:11.552Z,61.88
2017-11-08T08:23:11.582Z,61.88
2017-11-08T08:24:11.613Z,61.88
2017-11-08T08:25:11.644Z,61.88
2017-11-08T08:26:11.674Z,61.88
2017-11-08T08:27:11.704Z,67.50
2017-11-08T08:28:11.733Z,67.50
2017-11-08T08:29:11.764Z,67.50
2017-11-08T08:30:11.795Z,67.50
2017-11-08T08:31:11.825Z,67.50
2017-11-08T08:32:11.854Z,67.50
2017-11-08T08:33:11.886Z,67.50
2017-11-08T08:34:11.915Z,67.50
2017-11-08T08:35:11.947Z,67.50
2017-11-08T08:36:11.978Z,67.50
2017-11-08T08:37:12.017Z,67.50
2017-11-08T08:38:12.038Z,67.50
2017-11-08T08:39:12.067Z,67.50
2017-11-08T08:40:12.097Z,67.50
2017-11-08T08:41:12.129Z,67.50
2017-11-08T08:42:12.158Z,67.50
2017-11-08T08:43:12.188Z,67.50
2017-11-08T08:44:12.218Z,67.50
2017-11-08T08:45:12.250Z,67.50
2017-11-08T08:46:12.279Z,67.50
2017-11-08T08:47:12.310Z,73.13
2017-11-08T08:48:12.341Z,78.75
2017-11-08T08:49:12.373Z,84.38
2017-11-08T08:50:12.410Z,84.38
2017-11-08T08:51:12.431Z,84.38
2017-11-08T08:52:12.462Z,84.38
2017-11-08T08:53:12.492Z,84.38
2017-11-08T08:54:12.522Z,84.38
2017-11-08T08:55:12.552Z,78.75
2017-11-08T08:56:12.584Z,78.75
2017-11-08T08:57:12.614Z,78.75
2017-11-08T08:58:12.644Z,78.75
2017-11-08T08:59:12.673Z,84.38
2017-11-08T09:00:12.704Z,84.38
2017-11-08T09:01:12.736Z,84.38
2017-11-08T09:02:12.776Z,90.00
2017-11-08T09:03:12.797Z,95.63
2017-11-08T09:04:12.832Z,101.25
2017-11-08T09:05:12.858Z,106.88
2017-11-08T09:06:12.888Z,112.50
2017-11-08T09:07:12.919Z,118.13
2017-11-08T09:08:12.950Z,118.13
2017-11-08T09:09:12.979Z,118.13
2017-11-08T09:10:13.009Z,118.13
2017-11-08T09:11:13.042Z,123.75
2017-11-08T09:12:13.072Z,123.75
2017-11-08T09:13:13.105Z,123.75
2017-11-08T09:14:13.135Z,123.75
2017-11-08T09:15:13.164Z,129.38
2017-11-08T09:16:13.196Z,140.63
2017-11-08T09:17:13.226Z,140.63
2017-11-08T09:18:13.256Z,146.25
2017-11-08T09:19:13.286Z,146.25
2017-11-08T09:20:13.318Z,151.88
2017-11-08T09:21:13.349Z,146.25
2017-11-08T09:22:13.378Z,146.25
2017-11-08T09:23:13.410Z,140.63
2017-11-08T09:24:13.442Z,135.00
2017-11-08T09:25:13.473Z,135.00
2017-11-08T09:26:13.503Z,135.00
2017-11-08T09:27:13.544Z,135.00
2017-11-08T09:28:13.564Z,135.00
2017-11-08T09:29:13.601Z,123.75
2017-11-08T09:30:13.626Z,123.75
2017-11-08T09:31:13.660Z,123.75
2017-11-08T09:32:13.689Z,129.38
2017-11-08T09:33:13.720Z,123.75
2017-11-08T09:34:13.751Z,118.13
2017-11-08T09:35:13.782Z,118.13
2017-11-08T09:36:13.818Z,112.50
2017-11-08T09:37:13.845Z,106.88
2017-11-08T09:38:13.875Z,106.88
2017-11-08T09:39:13.906Z,101.25
2017-11-08T09:40:13.937Z,90.00
2017-11-08T09:41:13.968Z,78.75
2017-11-08T09:42:14.000Z,67.50
2017-11-08T09:43:14.031Z,61.88
2017-11-08T09:44:14.062Z,56.25
2017-11-08T09:45:14.093Z,56.25
2017-11-08T09:46:14.126Z,50.63
2017-11-08T09:47:14.154Z,50.63
2017-11-08T09:48:14.185Z,56.25
2017-11-08T09:49:14.215Z,56.25
2017-11-08T09:50:14.251Z,61.88
2017-11-08T09:51:14.277Z,73.13
2017-11-08T09:52:14.309Z,84.38
2017-11-08T09:53:14.340Z,90.00
2017-11-08T09:54:14.370Z,90.00
2017-11-08T09:55:14.405Z,95.63
2017-11-08T09:56:14.433Z,95.63
2017-11-08T09:57:14.492Z,95.63
2017-11-08T09:58:14.492Z,95.63
2017-11-08T09:59:14.525Z,101.25
2017-11-08T10:00:14.555Z,106.88
2017-11-08T10:01:14.586Z,106.88
2017-11-08T10:02:14.619Z,106.88
2017-11-08T10:03:14.647Z,101.25
2017-11-08T10:04:14.679Z,95.63
2017-11-08T10:05:14.715Z,90.00
2017-11-08T10:06:14.743Z,84.38
2017-11-08T10:07:14.842Z,73.13
2017-11-08T10:08:14.811Z,67.50
2017-11-08T10:09:14.839Z,61.88
2017-11-08T10:10:14.877Z,61.88
2017-11-08T10:11:14.894Z,61.88
2017-11-08T10:12:14.945Z,61.88
2017-11-08T10:13:14.979Z,61.88
2017-11-08T10:14:14.994Z,56.25
2017-11-08T10:15:15.019Z,56.25
2017-11-08T10:16:15.051Z,56.25
2017-11-08T10:17:15.082Z,56.25
2017-11-08T10:18:15.112Z,61.88
2017-11-08T10:19:15.142Z,73.13
2017-11-08T10:20:15.178Z,73.13
2017-11-08T10:21:15.205Z,78.75
2017-11-08T10:22:15.242Z,78.75
2017-11-08T10:23:15.269Z,84.38
2017-11-08T10:24:15.298Z,90.00
2017-11-08T10:25:15.328Z,90.00
2017-11-08T10:26:15.360Z,90.00
2017-11-08T10:27:15.398Z,84.38
2017-11-08T10:28:15.572Z,84.38
2017-11-08T10:29:15.452Z,84.38
2017-11-08T10:30:15.484Z,84.38
2017-11-08T10:31:15.515Z,90.00
2017-11-08T10:32:15.546Z,95.63
2017-11-08T10:33:15.578Z,101.25
2017-11-08T10:34:15.607Z,106.88
2017-11-08T10:35:15.639Z,112.50
2017-11-08T10:36:15.671Z,118.13
2017-11-08T10:37:15.701Z,123.75
2017-11-08T10:38:15.733Z,129.38
2017-11-08T10:39:15.764Z,135.00
2017-11-08T10:40:15.795Z,135.00
2017-11-08T10:41:15.826Z,129.38
2017-11-08T10:42:15.822Z,129.38
2017-11-08T10:43:15.854Z,123.75
2017-11-08T10:44:15.884Z,123.75
2017-11-08T10:45:15.915Z,123.75
2017-11-08T10:46:15.946Z,123.75
2017-11-08T10:47:15.978Z,129.38
2017-11-08T10:48:16.009Z,129.38
2017-11-08T10:49:16.191Z,135.00
2017-11-08T10:50:16.070Z,135.00
2017-11-08T10:51:16.103Z,140.63
2017-11-08T10:52:16.138Z,146.25
2017-11-08T10:53:16.164Z,146.25
2017-11-08T10:54:16.244Z,151.88
2017-11-08T10:55:16.227Z,157.50
2017-11-08T10:56:16.258Z,157.50
2017-11-08T10:57:16.289Z,163.13
2017-11-08T10:58:16.320Z,174.38
2017-11-08T10:59:16.355Z,180.00
2017-11-08T11:00:16.382Z,180.00
2017-11-08T11:01:16.415Z,191.25
2017-11-08T11:02:16.447Z,191.25
2017-11-08T11:03:16.480Z,191.25
2017-11-08T11:04:16.511Z,185.63
2017-11-08T11:05:16.541Z,180.00
2017-11-08T11:06:16.578Z,174.38
2017-11-08T11:07:16.605Z,168.75
2017-11-08T11:08:16.637Z,168.75
2017-11-08T11:09:16.718Z,163.13
2017-11-08T11:10:16.704Z,168.75
2017-11-08T11:11:16.732Z,180.00
2017-11-08T11:12:16.764Z,180.00
2017-11-08T11:13:16.794Z,185.63
2017-11-08T11:14:16.830Z,191.25
2017-11-08T11:15:16.859Z,202.50
2017-11-08T11:16:16.890Z,225.00
2017-11-08T11:17:16.923Z,253.13
2017-11-08T11:18:16.955Z,275.63
2017-11-08T11:19:16.988Z,281.25
2017-11-08T11:20:17.023Z,275.63
2017-11-08T11:21:17.053Z,270.00
2017-11-08T11:22:17.089Z,253.13
2017-11-08T11:23:17.115Z,230.63
2017-11-08T11:24:17.147Z,202.50
2017-11-08T11:25:17.179Z,185.63
2017-11-08T11:26:17.212Z,174.38
2017-11-08T11:27:17.244Z,168.75
2017-11-08T11:28:17.277Z,168.75
2017-11-08T11:29:17.311Z,168.75
2017-11-08T11:30:17.343Z,180.00
2017-11-08T11:31:17.373Z,180.00
2017-11-08T11:32:17.415Z,191.25
2017-11-08T11:33:17.440Z,191.25
2017-11-08T11:34:17.471Z,202.50
2017-11-08T11:35:17.554Z,213.75
2017-11-08T11:36:17.536Z,225.00
2017-11-08T11:37:17.568Z,230.63
2017-11-08T11:38:17.600Z,230.63
2017-11-08T11:39:17.636Z,219.38
2017-11-08T11:40:17.666Z,202.50
2017-11-08T11:41:17.697Z,191.25
2017-11-08T11:42:17.733Z,174.38
2017-11-08T11:43:17.764Z,157.50
2017-11-08T11:44:17.795Z,140.63
2017-11-08T11:45:17.829Z,129.38
2017-11-08T11:46:17.860Z,129.38
2017-11-08T11:47:17.893Z,135.00
2017-11-08T11:48:17.924Z,135.00
2017-11-08T11:49:17.958Z,135.00
2017-11-08T11:50:17.989Z,135.00
2017-11-08T11:51:18.034Z,135.00
2017-11-08T11:52:18.055Z,135.00
2017-11-08T11:53:18.087Z,135.00
2017-11-08T11:54:18.118Z,135.00
2017-11-08T11:55:18.151Z,135.00
2017-11-08T11:56:18.186Z,129.38
2017-11-08T11:57:18.217Z,129.38
2017-11-08T11:58:18.247Z,129.38
2017-11-08T11:59:18.279Z,129.38
2017-11-08T12:00:18.312Z,129.38
2017-11-08T12:01:18.347Z,123.75
2017-11-08T12:02:18.376Z,118.13
2017-11-08T12:03:18.409Z,112.50
2017-11-08T12:04:18.440Z,106.88
2017-11-08T12:05:18.474Z,101.25
2017-11-08T12:06:18.504Z,95.63
2017-11-08T12:07:18.536Z,95.63
2017-11-08T12:08:18.568Z,95.63
2017-11-08T12:09:18.599Z,95.63
2017-11-08T12:10:18.632Z,95.63
2017-11-08T12:11:18.667Z,95.63
2017-11-08T12:12:18.699Z,101.25
2017-11-08T12:13:18.729Z,101.25
2017-11-08T12:14:18.759Z,101.25
2017-11-08T12:15:18.791Z,101.25
2017-11-08T12:16:18.824Z,101.25
2017-11-08T12:17:18.857Z,101.25
2017-11-08T12:18:18.887Z,101.25
2017-11-08T12:19:18.918Z,101.25
2017-11-08T12:20:18.951Z,95.63
2017-11-08T12:21:18.983Z,95.63
2017-11-08T12:22:19.063Z,90.00
2017-11-08T12:23:19.044Z,90.00
2017-11-08T12:24:19.078Z,84.38
2017-11-08T12:25:19.109Z,84.38
2017-11-08T12:26:19.141Z,78.75
2017-11-08T12:27:19.174Z,73.13
2017-11-08T12:28:19.203Z,73.13
2017-11-08T12:29:19.244Z,67.50
2017-11-08T12:30:19.265Z,67.50
2017-11-08T12:31:19.298Z,67.50
2017-11-08T12:32:19.330Z,67.50
2017-11-08T12:33:19.363Z,67.50
2017-11-08T12:34:19.392Z,67.50
2017-11-08T12:35:19.425Z,73.13
2017-11-08T12:36:19.457Z,73.13
2017-11-08T12:37:19.492Z,78.75
2017-11-08T12:38:19.522Z,84.38
2017-11-08T12:39:19.550Z,90.00
2017-11-08T12:40:19.583Z,95.63
2017-11-08T12:41:19.615Z,101.25
2017-11-08T12:42:19.645Z,112.50
2017-11-08T12:43:19.677Z,118.13
2017-11-08T12:44:19.712Z,118.13
2017-11-08T12:45:19.739Z,118.13
2017-11-08T12:46:19.770Z,112.50
2017-11-08T12:47:19.801Z,106.88
2017-11-08T12:48:19.834Z,101.25
2017-11-08T12:49:19.864Z,95.63
2017-11-08T12:50:19.895Z,90.00
2017-11-08T12:51:19.927Z,90.00
2017-11-08T12:52:19.959Z,78.75
2017-11-08T12:53:19.991Z,78.75
2017-11-08T12:54:20.021Z,78.75
2017-11-08T12:55:20.052Z,78.75
2017-11-08T12:56:20.088Z,78.75
2017-11-08T12:57:20.116Z,78.75
2017-11-08T12:58:20.165Z,78.75
2017-11-08T12:59:20.180Z,73.13
2017-11-08T13:00:20.210Z,73.13
2017-11-08T13:01:20.241Z,73.13